Time;durP1;ratioP1;P1;durP2;ratioP2;P2;SDS_P1;SDS_P2;PMS_P1;PMS_P2;Temp;Humidity;BMP_temperature;BMP_pressure;BME280_temperature;BME280_humidity;BME280_pressure;Samples;Min_cycle;Max_cycle;Signal;HPM_P1;HPM_P2
2022/03/19 00:01:14;;;;;;;7.53;1.70;;;9.50;88.90;;;;;;4952488;28;20081;-67
2022/03/19 00:03:40;;;;;;;13.55;1.67;;;9.40;89.30;;;;;;4940285;28;20032;-67
2022/03/19 00:06:06;;;;;;;8.07;2.03;;;9.40;89.50;;;;;;4951737;28;20071;-68
2022/03/19 00:08:32;;;;;;;14.20;2.25;;;9.40;89.80;;;;;;4951832;28;20063;-67
2022/03/19 00:11:00;;;;;;;11.43;2.35;;;9.30;90.00;;;;;;4946051;28;20039;-67
2022/03/19 00:13:26;;;;;;;15.48;2.55;;;9.30;90.00;;;;;;4933505;28;20075;-67
2022/03/19 00:15:52;;;;;;;9.50;1.95;;;9.30;90.00;;;;;;4950863;28;20078;-67
2022/03/19 00:18:17;;;;;;;13.05;2.22;;;9.20;89.90;;;;;;4939592;28;20024;-67
2022/03/19 00:20:43;;;;;;;13.90;2.13;;;9.20;89.80;;;;;;4995935;28;20074;-67
2022/03/19 00:23:10;;;;;;;11.10;2.00;;;9.20;89.80;;;;;;4976717;28;20034;-67
2022/03/19 00:25:37;;;;;;;13.93;2.30;;;9.20;89.70;;;;;;4952137;28;20110;-67
2022/03/19 00:28:03;;;;;;;11.82;2.00;;;9.20;89.70;;;;;;4952152;28;20031;-67
2022/03/19 00:30:32;;;;;;;9.55;1.98;;;9.20;89.60;;;;;;4950548;28;20047;-67
2022/03/19 00:32:58;;;;;;;17.15;3.25;;;9.20;89.60;;;;;;4951794;28;20031;-67
2022/03/19 00:35:23;;;;;;;13.10;2.10;;;9.20;89.60;;;;;;4952114;28;20363;-67
2022/03/19 00:37:52;;;;;;;13.68;2.08;;;9.20;89.70;;;;;;4948839;28;20024;-67
2022/03/19 00:40:19;;;;;;;11.65;2.33;;;9.20;89.70;;;;;;4941237;28;20047;-67
2022/03/19 00:42:47;;;;;;;21.38;2.17;;;9.20;89.70;;;;;;4935938;28;20043;-67
2022/03/19 00:45:13;;;;;;;17.52;2.38;;;9.10;89.70;;;;;;4932294;28;20086;-67
2022/03/19 00:47:39;;;;;;;17.25;1.92;;;9.20;89.70;;;;;;4944421;28;20494;-67
2022/03/19 00:50:05;;;;;;;12.52;2.40;;;9.10;89.70;;;;;;4950817;28;20130;-66
2022/03/19 00:52:31;;;;;;;13.32;2.60;;;9.10;89.80;;;;;;4939025;28;20036;-67
2022/03/19 00:54:57;;;;;;;9.80;2.30;;;9.10;89.90;;;;;;4951084;28;20536;-67
2022/03/19 00:57:24;;;;;;;12.60;2.47;;;9.10;89.90;;;;;;4939037;28;20058;-67
2022/03/19 00:59:52;;;;;;;14.57;2.80;;;9.00;89.90;;;;;;4950703;28;20134;-66
2022/03/19 01:02:18;;;;;;;12.18;2.70;;;9.10;89.90;;;;;;4951528;28;20032;-67
2022/03/19 01:04:44;;;;;;;8.07;1.88;;;9.10;89.90;;;;;;4951046;28;20165;-67
2022/03/19 01:07:09;;;;;;;9.93;2.83;;;9.00;89.90;;;;;;4950171;28;20436;-67
2022/03/19 01:09:35;;;;;;;11.35;3.10;;;9.00;89.90;;;;;;4951608;28;20032;-67
2022/03/19 01:12:01;;;;;;;13.38;2.25;;;9.00;90.00;;;;;;4937287;28;20035;-67
2022/03/19 01:14:27;;;;;;;13.20;3.00;;;9.00;90.00;;;;;;4938906;28;20055;-67
2022/03/19 01:16:52;;;;;;;17.60;2.45;;;9.00;90.10;;;;;;4937990;28;20035;-67
2022/03/19 01:19:52;;;;;;;19.40;3.10;;;9.00;90.10;;;;;;4973160;28;20480;-67
2022/03/19 01:22:04;;;;;;;18.02;2.15;;;9.00;90.20;;;;;;4986612;28;20046;-67
2022/03/19 01:24:30;;;;;;;22.13;4.00;;;9.00;90.20;;;;;;4951284;28;20038;-67
2022/03/19 01:26:55;;;;;;;20.65;3.90;;;9.00;90.30;;;;;;4950683;28;20027;-67
2022/03/19 01:29:21;;;;;;;18.00;3.00;;;8.90;90.30;;;;;;4951018;28;20085;-67
2022/03/19 01:31:49;;;;;;;10.02;2.92;;;8.90;90.30;;;;;;4945700;28;20036;-67
2022/03/19 01:34:15;;;;;;;15.88;3.40;;;8.90;90.30;;;;;;4942837;28;20067;-67
2022/03/19 01:36:41;;;;;;;10.57;2.22;;;8.80;90.30;;;;;;4950966;28;20074;-67
2022/03/19 01:39:06;;;;;;;7.75;2.05;;;8.80;90.40;;;;;;4938674;28;20368;-67
2022/03/19 01:41:32;;;;;;;17.70;2.97;;;8.80;90.60;;;;;;4935568;28;20031;-67
2022/03/19 01:43:58;;;;;;;15.65;2.97;;;8.80;90.40;;;;;;4940080;28;20043;-67
2022/03/19 01:46:23;;;;;;;13.43;3.50;;;8.80;90.40;;;;;;4936223;28;20042;-67
2022/03/19 01:48:49;;;;;;;8.75;2.85;;;8.80;90.50;;;;;;4931286;29;20556;-68
2022/03/19 01:51:14;;;;;;;13.02;2.90;;;8.80;90.50;;;;;;4944644;28;20464;-67
2022/03/19 01:53:40;;;;;;;18.55;2.92;;;8.70;90.50;;;;;;4932065;28;20028;-67
2022/03/19 01:56:07;;;;;;;10.30;2.75;;;8.80;90.60;;;;;;4948127;28;20858;-67
2022/03/19 01:58:32;;;;;;;8.93;2.55;;;8.70;90.60;;;;;;5004174;28;20054;-66
2022/03/19 02:00:58;;;;;;;13.98;3.28;;;8.70;90.60;;;;;;4984581;28;20128;-68
2022/03/19 02:03:24;;;;;;;18.83;3.20;;;8.70;90.70;;;;;;4938262;28;20468;-67
2022/03/19 02:05:50;;;;;;;14.60;2.58;;;8.70;90.70;;;;;;5003482;28;20078;-67
2022/03/19 02:08:18;;;;;;;15.00;2.75;;;8.70;90.70;;;;;;4939456;28;20486;-67
2022/03/19 02:10:44;;;;;;;11.98;2.55;;;8.70;90.80;;;;;;4950589;28;20109;-67
2022/03/19 02:13:10;;;;;;;20.38;2.85;;;8.60;90.80;;;;;;4960730;28;20106;-67
2022/03/19 02:15:36;;;;;;;11.90;2.40;;;8.70;90.80;;;;;;5039451;28;20159;-67
2022/03/19 02:18:02;;;;;;;11.73;2.78;;;8.60;90.80;;;;;;4991229;28;20032;-67
2022/03/19 02:20:35;;;;;;;7.45;2.05;;;8.70;90.90;;;;;;4950710;28;20043;-67
2022/03/19 02:25:48;;;;;;;8.23;2.47;;;8.60;90.90;;;;;;4950158;28;20035;-67
2022/03/19 02:28:13;;;;;;;11.15;2.45;;;8.60;90.90;;;;;;4941166;28;20035;-67
2022/03/19 02:30:43;;;;;;;19.63;3.45;;;8.60;90.90;;;;;;4967417;28;20068;-67
2022/03/19 02:33:09;;;;;;;17.92;4.60;;;8.50;90.90;;;;;;4934708;28;20090;-67
2022/03/19 02:35:38;;;;;;;10.60;3.42;;;8.50;91.00;;;;;;4940240;28;20043;-68
2022/03/19 02:38:03;;;;;;;14.45;3.55;;;8.50;91.00;;;;;;4949471;28;20031;-67
2022/03/19 02:40:29;;;;;;;17.38;2.67;;;8.40;91.00;;;;;;4940073;28;20062;-67
2022/03/19 02:42:56;;;;;;;14.55;3.05;;;8.50;91.10;;;;;;4947404;28;20015;-67
2022/03/19 02:45:22;;;;;;;20.50;3.35;;;8.40;91.10;;;;;;4949710;28;20042;-67
2022/03/19 02:47:57;;;;;;;15.93;2.97;;;8.40;91.10;;;;;;4987976;28;20382;-67
2022/03/19 02:50:25;;;;;;;18.38;4.30;;;8.40;91.20;;;;;;4962131;28;20122;-67
2022/03/19 02:52:51;;;;;;;8.52;3.20;;;8.40;91.20;;;;;;4944907;28;20130;-67
2022/03/19 02:55:17;;;;;;;14.65;3.20;;;8.40;91.20;;;;;;4943342;28;20485;-68
2022/03/19 02:57:42;;;;;;;13.60;2.85;;;8.40;91.20;;;;;;4947636;28;20034;-68
2022/03/19 03:00:09;;;;;;;13.55;3.20;;;8.40;91.20;;;;;;4951650;28;20104;-68
2022/03/19 03:02:34;;;;;;;11.15;2.60;;;8.30;91.20;;;;;;4952359;28;20503;-67
2022/03/19 03:05:00;;;;;;;13.68;3.38;;;8.30;91.30;;;;;;4949614;28;20019;-68
2022/03/19 03:07:25;;;;;;;14.45;3.20;;;8.30;91.50;;;;;;4959899;28;20039;-68
2022/03/19 03:09:52;;;;;;;11.95;2.88;;;8.30;91.30;;;;;;4949818;28;20043;-68
2022/03/19 03:12:20;;;;;;;17.17;3.50;;;8.30;91.30;;;;;;4960347;28;20021;-67
2022/03/19 03:14:46;;;;;;;11.63;3.03;;;8.30;91.30;;;;;;4959719;28;20065;-68
2022/03/19 03:17:11;;;;;;;15.40;3.40;;;8.30;91.30;;;;;;4942720;28;20658;-68
2022/03/19 03:19:37;;;;;;;17.48;3.38;;;8.20;91.30;;;;;;4949797;28;20042;-68
2022/03/19 03:22:03;;;;;;;14.40;3.33;;;8.20;91.30;;;;;;5012564;28;20064;-68
2022/03/19 03:24:29;;;;;;;16.08;3.33;;;8.20;91.30;;;;;;4963544;28;20093;-68
2022/03/19 03:26:55;;;;;;;15.45;3.70;;;8.20;91.30;;;;;;4952693;28;20034;-68
2022/03/19 03:29:21;;;;;;;21.33;3.85;;;8.20;91.30;;;;;;4948427;28;20028;-68
2022/03/19 03:31:46;;;;;;;14.88;3.55;;;8.20;91.30;;;;;;4941489;28;20038;-68
2022/03/19 03:34:12;;;;;;;19.15;3.40;;;8.20;91.30;;;;;;4951166;28;20550;-68
2022/03/19 03:36:38;;;;;;;11.98;3.50;;;8.20;91.40;;;;;;4944701;28;20048;-68
2022/03/19 03:39:03;;;;;;;13.45;3.78;;;8.20;91.40;;;;;;4946251;28;20032;-68
2022/03/19 03:41:29;;;;;;;14.80;4.57;;;8.20;91.40;;;;;;4937345;28;20027;-67
2022/03/19 03:43:55;;;;;;;13.85;4.30;;;8.20;91.40;;;;;;4950546;28;20073;-68
2022/03/19 03:46:21;;;;;;;16.60;4.35;;;8.20;91.40;;;;;;4952640;28;20062;-68
2022/03/19 03:48:46;;;;;;;15.73;4.32;;;8.10;91.40;;;;;;4939765;28;20541;-68
2022/03/19 03:51:12;;;;;;;16.88;4.10;;;8.10;91.40;;;;;;4952807;28;20638;-68
2022/03/19 03:53:40;;;;;;;19.50;4.95;;;8.10;91.40;;;;;;4951996;28;20505;-68
2022/03/19 03:56:09;;;;;;;19.23;4.95;;;8.10;91.40;;;;;;4952343;28;20054;-68
2022/03/19 03:58:35;;;;;;;16.27;4.30;;;8.10;91.40;;;;;;4952154;28;20511;-68
2022/03/19 04:01:01;;;;;;;15.85;4.82;;;8.10;91.50;;;;;;4951833;28;20537;-68
2022/03/19 04:03:26;;;;;;;14.82;4.82;;;8.00;91.40;;;;;;4946645;28;20040;-68
2022/03/19 04:05:52;;;;;;;14.95;4.45;;;8.10;91.50;;;;;;4940923;28;20122;-68
2022/03/19 04:08:18;;;;;;;19.55;4.35;;;8.00;91.50;;;;;;4951661;28;20089;-68
2022/03/19 04:10:43;;;;;;;18.17;4.38;;;8.00;91.50;;;;;;4952558;28;20027;-68
2022/03/19 04:13:09;;;;;;;12.30;4.22;;;8.00;91.60;;;;;;4939535;28;20183;-68
2022/03/19 04:15:35;;;;;;;21.13;5.50;;;8.00;91.60;;;;;;4951583;28;20443;-68
2022/03/19 04:18:03;;;;;;;16.23;6.55;;;8.00;91.60;;;;;;4951941;28;20023;-67
2022/03/19 04:20:29;;;;;;;17.85;5.97;;;7.90;91.50;;;;;;4953965;28;20043;-67
2022/03/19 04:22:55;;;;;;;19.42;5.35;;;7.90;91.60;;;;;;4970140;28;20036;-68
2022/03/19 04:25:22;;;;;;;20.83;5.25;;;7.90;91.60;;;;;;4952382;28;20023;-68
2022/03/19 04:27:51;;;;;;;19.08;5.38;;;7.90;91.60;;;;;;4951993;28;20027;-68
2022/03/19 04:30:19;;;;;;;14.23;5.68;;;7.90;91.60;;;;;;4941323;28;20089;-68
2022/03/19 04:32:52;;;;;;;22.23;5.95;;;7.90;91.60;;;;;;4946004;28;20031;-68
2022/03/19 04:38:08;;;;;;;19.08;5.28;;;7.80;91.70;;;;;;4940896;28;20173;-68
2022/03/19 04:40:35;;;;;;;20.88;5.80;;;7.80;92.00;;;;;;4951909;28;20391;-68
2022/03/19 04:43:01;;;;;;;17.33;6.22;;;7.80;91.80;;;;;;4941749;28;20036;-68
2022/03/19 04:45:27;;;;;;;16.00;5.43;;;7.80;91.80;;;;;;4935108;28;20043;-68
2022/03/19 04:47:53;;;;;;;21.02;6.65;;;7.80;91.90;;;;;;4951633;28;20031;-68
2022/03/19 04:50:19;;;;;;;16.38;5.78;;;7.70;91.90;;;;;;4950524;28;20069;-68
2022/03/19 04:52:49;;;;;;;17.73;6.32;;;7.80;91.90;;;;;;4941991;29;20038;-68
2022/03/19 04:55:14;;;;;;;29.77;7.35;;;7.70;91.90;;;;;;4936591;28;20047;-68
2022/03/19 04:57:40;;;;;;;17.02;5.90;;;7.70;92.00;;;;;;4940683;28;20028;-68
2022/03/19 05:00:08;;;;;;;22.15;6.53;;;7.70;92.00;;;;;;4949130;28;20510;-68
2022/03/19 05:02:34;;;;;;;17.58;6.32;;;7.70;92.00;;;;;;4951074;28;20043;-68
2022/03/19 05:05:02;;;;;;;16.70;5.75;;;7.70;92.00;;;;;;4937555;28;20127;-68
2022/03/19 05:07:28;;;;;;;17.13;5.90;;;7.70;92.10;;;;;;4939597;28;20175;-68
2022/03/19 05:12:40;;;;;;;19.60;6.13;;;7.60;92.10;;;;;;4950783;28;20088;-68
2022/03/19 05:15:10;;;;;;;21.70;7.50;;;7.60;92.20;;;;;;4950783;28;20042;-67
2022/03/19 05:17:35;;;;;;;14.88;6.95;;;7.60;92.20;;;;;;4951489;28;20050;-68
2022/03/19 05:20:01;;;;;;;22.33;6.03;;;7.60;92.20;;;;;;4950483;28;20475;-68
2022/03/19 05:22:29;;;;;;;19.40;6.72;;;7.60;92.20;;;;;;4972976;28;20046;-68
2022/03/19 05:24:56;;;;;;;22.55;6.50;;;7.60;92.20;;;;;;4932430;28;20028;-68
2022/03/19 05:27:22;;;;;;;15.55;6.72;;;7.50;92.10;;;;;;4944366;28;20035;-67
2022/03/19 05:29:48;;;;;;;22.55;7.00;;;7.60;92.20;;;;;;4944476;28;20499;-68
2022/03/19 05:32:15;;;;;;;20.70;7.60;;;7.50;92.10;;;;;;4944223;29;20050;-68
2022/03/19 05:34:41;;;;;;;19.85;6.95;;;7.50;92.10;;;;;;4931706;28;20495;-68
2022/03/19 05:37:07;;;;;;;20.77;8.07;;;7.50;92.10;;;;;;4945405;28;20513;-68
2022/03/19 05:39:34;;;;;;;19.17;6.97;;;7.50;92.10;;;;;;4949700;28;20124;-68
2022/03/19 05:42:00;;;;;;;18.25;6.65;;;7.50;92.00;;;;;;4948849;28;20027;-68
2022/03/19 05:44:26;;;;;;;17.52;6.15;;;7.50;92.00;;;;;;4950920;28;20042;-68
2022/03/19 05:46:52;;;;;;;25.42;8.45;;;7.50;92.10;;;;;;4950181;28;20031;-68
2022/03/19 05:49:17;;;;;;;21.45;7.25;;;7.50;92.10;;;;;;4950463;28;20066;-67
2022/03/19 05:51:45;;;;;;;15.52;6.38;;;7.40;92.00;;;;;;4950713;28;20054;-68
2022/03/19 05:54:12;;;;;;;25.85;7.15;;;7.40;92.00;;;;;;4941072;28;20035;-67
2022/03/19 05:56:40;;;;;;;14.05;7.32;;;7.40;92.00;;;;;;4946686;28;20525;-67
2022/03/19 05:59:06;;;;;;;20.52;7.28;;;7.40;92.10;;;;;;4950452;28;20083;-67
2022/03/19 06:01:31;;;;;;;25.63;7.70;;;7.40;92.10;;;;;;4949910;28;20066;-67
2022/03/19 06:03:58;;;;;;;19.60;6.72;;;7.40;92.10;;;;;;4950272;28;20043;-67
2022/03/19 06:06:25;;;;;;;19.27;7.13;;;7.30;92.10;;;;;;4958562;28;20081;-68
2022/03/19 06:08:51;;;;;;;21.92;7.72;;;7.30;92.10;;;;;;4954668;28;20063;-67
2022/03/19 06:11:17;;;;;;;21.27;8.02;;;7.30;92.20;;;;;;4935679;28;20071;-70
2022/03/19 06:13:43;;;;;;;21.75;7.35;;;7.30;92.20;;;;;;4943751;28;20121;-66
2022/03/19 06:16:09;;;;;;;25.83;8.30;;;7.30;92.20;;;;;;4958812;28;20120;-67
2022/03/19 06:18:38;;;;;;;15.55;7.53;;;7.20;92.20;;;;;;4945955;28;20032;-67
2022/03/19 06:21:04;;;;;;;23.65;7.57;;;7.30;92.30;;;;;;4971345;28;20043;-66
2022/03/19 06:23:30;;;;;;;23.42;9.10;;;7.30;92.40;;;;;;4962538;28;20122;-66
2022/03/19 06:25:56;;;;;;;17.25;6.82;;;7.20;92.40;;;;;;4945959;28;20093;-67
2022/03/19 06:28:22;;;;;;;15.32;6.25;;;7.20;92.40;;;;;;4954640;28;20039;-66
2022/03/19 06:30:48;;;;;;;26.00;7.40;;;7.20;92.50;;;;;;4953035;28;20039;-67
2022/03/19 06:33:14;;;;;;;22.08;7.18;;;7.20;92.50;;;;;;4946352;28;20050;-67
2022/03/19 06:38:28;;;;;;;19.73;7.10;;;7.20;92.60;;;;;;4955248;28;20117;-67
2022/03/19 06:40:58;;;;;;;19.58;8.40;;;7.20;92.60;;;;;;4954111;28;20193;-66
2022/03/19 06:43:24;;;;;;;23.23;6.40;;;7.20;92.60;;;;;;4948329;28;20043;-67
2022/03/19 06:45:50;;;;;;;20.70;6.90;;;7.20;92.60;;;;;;4944755;28;20116;-68
2022/03/19 06:48:16;;;;;;;16.50;6.90;;;7.20;92.70;;;;;;4945639;28;20047;-67
2022/03/19 06:50:42;;;;;;;17.27;7.00;;;7.20;92.70;;;;;;4946214;28;20046;-68
2022/03/19 06:53:11;;;;;;;13.68;6.00;;;7.20;92.70;;;;;;4958223;28;20027;-68
2022/03/19 06:55:36;;;;;;;19.85;5.97;;;7.20;92.80;;;;;;4945084;28;20055;-67
2022/03/19 06:58:02;;;;;;;18.23;5.65;;;7.20;92.80;;;;;;4948459;28;20686;-66
2022/03/19 07:00:27;;;;;;;18.75;7.05;;;7.20;92.80;;;;;;4947740;28;20126;-66
2022/03/19 07:02:55;;;;;;;20.20;6.43;;;7.20;92.80;;;;;;4946192;28;20077;-65
2022/03/19 07:05:28;;;;;;;19.20;6.18;;;7.30;92.90;;;;;;4939034;28;20569;-66
2022/03/19 07:07:56;;;;;;;22.42;5.03;;;7.30;92.90;;;;;;4945166;28;20039;-66
2022/03/19 07:10:22;;;;;;;11.80;4.07;;;7.30;92.90;;;;;;4995234;28;20035;-66
2022/03/19 07:12:57;;;;;;;14.82;3.85;;;7.40;92.90;;;;;;4946968;28;20501;-69
2022/03/19 07:15:27;;;;;;;20.52;4.97;;;7.40;92.90;;;;;;4938015;28;20038;-66
2022/03/19 07:17:53;;;;;;;20.65;4.97;;;7.50;92.80;;;;;;4968635;28;20028;-65
2022/03/19 07:20:19;;;;;;;24.08;5.18;;;7.50;92.80;;;;;;4948345;28;20036;-66
2022/03/19 07:22:50;;;;;;;18.38;4.50;;;7.50;92.70;;;;;;4930157;28;20074;-66
2022/03/19 07:25:16;;;;;;;14.07;4.85;;;7.60;92.70;;;;;;4940602;28;20059;-66
2022/03/19 07:27:43;;;;;;;16.17;4.70;;;7.60;92.70;;;;;;4940854;28;20043;-66
2022/03/19 07:30:09;;;;;;;13.02;4.03;;;7.70;92.70;;;;;;4941147;28;20486;-66
2022/03/19 07:32:38;;;;;;;18.15;4.55;;;7.70;92.60;;;;;;4935953;29;20039;-65
2022/03/19 07:35:06;;;;;;;4.38;1.35;;;7.70;92.60;;;;;;4948435;28;20047;-65
2022/03/19 07:37:33;;;;;;;18.30;4.18;;;7.80;92.60;;;;;;4947735;28;20035;-69
2022/03/19 07:39:59;;;;;;;18.02;4.18;;;7.80;92.60;;;;;;4931237;28;20036;-66
2022/03/19 07:42:25;;;;;;;16.90;4.72;;;7.80;92.50;;;;;;4944841;28;20506;-66
2022/03/19 07:44:51;;;;;;;21.08;5.57;;;7.90;92.60;;;;;;4971713;28;20032;-65
2022/03/19 07:47:17;;;;;;;21.20;5.90;;;7.90;92.60;;;;;;4966260;28;20465;-65
2022/03/19 07:49:43;;;;;;;14.73;4.00;;;7.90;92.60;;;;;;4972700;28;20109;-65
2022/03/19 07:52:14;;;;;;;27.65;5.88;;;8.00;92.60;;;;;;4951916;28;20055;-66
2022/03/19 07:54:42;;;;;;;23.25;3.70;;;8.00;92.60;;;;;;4951145;28;20512;-66
2022/03/19 07:57:10;;;;;;;16.10;5.13;;;8.00;92.60;;;;;;4943009;28;20031;-66
2022/03/19 07:59:37;;;;;;;19.77;5.03;;;8.10;92.60;;;;;;4941417;28;20864;-66
2022/03/19 08:02:06;;;;;;;14.50;4.22;;;8.10;92.50;;;;;;4957965;28;20366;-65
2022/03/19 08:04:35;;;;;;;17.90;4.18;;;8.20;92.50;;;;;;4947652;28;20043;-66
2022/03/19 08:07:01;;;;;;;15.80;4.10;;;8.20;92.50;;;;;;4935182;28;20035;-66
2022/03/19 08:09:26;;;;;;;15.95;5.10;;;8.30;92.50;;;;;;4947343;28;20031;-65
2022/03/19 08:11:52;;;;;;;12.43;4.00;;;8.30;92.50;;;;;;4950594;28;20039;-64
2022/03/19 08:14:19;;;;;;;14.63;4.25;;;8.30;92.50;;;;;;4950991;28;20031;-64
2022/03/19 08:16:46;;;;;;;10.68;4.00;;;8.30;92.40;;;;;;4947801;28;20782;-70
2022/03/19 08:19:12;;;;;;;10.02;3.10;;;8.40;92.40;;;;;;4947517;28;20031;-66
2022/03/19 08:21:39;;;;;;;16.13;4.05;;;8.40;92.30;;;;;;4959980;28;20039;-70
2022/03/19 08:24:07;;;;;;;12.02;3.42;;;8.50;92.30;;;;;;4949336;28;20035;-68
2022/03/19 08:26:34;;;;;;;10.90;3.85;;;8.50;92.20;;;;;;4949084;28;20027;-68
2022/03/19 08:29:00;;;;;;;13.55;4.65;;;8.60;92.20;;;;;;4948960;28;20039;-67
2022/03/19 08:31:25;;;;;;;10.73;3.38;;;8.60;92.20;;;;;;4946991;28;20390;-68
2022/03/19 08:33:52;;;;;;;8.07;2.30;;;8.70;92.30;;;;;;4980210;28;20115;-67
2022/03/19 08:36:17;;;;;;;15.27;4.38;;;8.70;92.30;;;;;;4962002;28;20054;-68
2022/03/19 08:41:27;;;;;;;12.25;3.60;;;8.80;92.50;;;;;;4950992;28;20391;-67
2022/03/19 08:43:54;;;;;;;17.02;4.30;;;8.80;92.40;;;;;;4950707;28;20036;-68
2022/03/19 08:46:19;;;;;;;17.20;4.18;;;8.80;92.60;;;;;;4939747;28;20063;-68
2022/03/19 08:48:45;;;;;;;10.63;3.28;;;8.80;92.70;;;;;;4936104;28;20521;-69
2022/03/19 08:53:55;;;;;;;11.75;2.53;;;8.90;92.70;;;;;;4950993;28;20487;-68
2022/03/19 08:56:21;;;;;;;0.77;0.68;;;9.00;92.60;;;;;;4948715;29;20065;-68
2022/03/19 08:58:46;;;;;;;24.60;3.83;;;9.00;92.60;;;;;;4949084;28;20039;-68
2022/03/19 09:01:12;;;;;;;6.25;1.67;;;9.00;92.60;;;;;;4947705;28;20398;-69
2022/03/19 09:03:40;;;;;;;6.25;1.80;;;9.00;92.50;;;;;;4947546;28;20451;-69
2022/03/19 09:06:10;;;;;;;11.40;3.08;;;9.10;92.40;;;;;;4949288;29;20054;-67
2022/03/19 09:08:36;;;;;;;3.88;0.93;;;9.10;92.40;;;;;;4948538;28;20387;-70
2022/03/19 09:11:01;;;;;;;10.93;2.47;;;9.20;92.40;;;;;;4948172;28;20027;-70
2022/03/19 09:13:27;;;;;;;5.57;2.40;;;9.20;92.40;;;;;;4949699;28;20403;-67
2022/03/19 09:15:52;;;;;;;7.78;1.50;;;9.20;92.40;;;;;;4949613;28;20035;-69
2022/03/19 09:18:20;;;;;;;9.25;2.20;;;9.30;92.30;;;;;;4948555;29;20449;-67
2022/03/19 09:20:45;;;;;;;1.73;0.95;;;9.30;92.40;;;;;;4952985;28;20373;-68
2022/03/19 09:23:14;;;;;;;8.82;2.58;;;9.30;92.30;;;;;;4949276;28;20101;-69
2022/03/19 09:25:40;;;;;;;4.43;1.38;;;9.30;92.30;;;;;;4945752;28;20491;-68
2022/03/19 09:28:06;;;;;;;13.38;2.70;;;9.40;92.40;;;;;;4949043;28;20030;-68
2022/03/19 09:30:32;;;;;;;4.78;1.48;;;9.40;92.20;;;;;;4948019;28;20110;-68
2022/03/19 09:32:57;;;;;;;11.75;2.17;;;9.50;92.20;;;;;;4948361;28;20379;-68
2022/03/19 09:35:24;;;;;;;7.85;2.03;;;9.50;91.90;;;;;;4946263;28;20063;-67
2022/03/19 09:37:50;;;;;;;11.57;2.28;;;9.50;92.00;;;;;;4946825;28;20498;-69
2022/03/19 09:40:16;;;;;;;8.77;1.65;;;9.50;91.90;;;;;;4939489;28;20054;-68
2022/03/19 09:42:54;;;;;;;9.50;2.30;;;9.60;92.20;;;;;;4942229;28;20442;-68
2022/03/19 09:45:26;;;;;;;6.53;1.40;;;9.60;91.80;;;;;;4945692;28;20110;-68
2022/03/19 09:47:53;;;;;;;9.63;1.77;;;9.60;92.10;;;;;;4945088;28;20039;-68
2022/03/19 09:50:20;;;;;;;3.60;1.23;;;9.70;92.20;;;;;;4945323;28;20085;-68
2022/03/19 09:52:51;;;;;;;5.78;1.58;;;9.70;92.20;;;;;;4946693;28;20027;-68
2022/03/19 09:55:18;;;;;;;8.98;2.20;;;9.80;92.40;;;;;;4948678;28;20049;-68
2022/03/19 09:57:44;;;;;;;2.25;1.10;;;9.80;92.20;;;;;;4947761;28;20031;-69
2022/03/19 10:00:13;;;;;;;7.70;2.17;;;9.80;92.20;;;;;;4945268;28;20065;-68
2022/03/19 10:02:54;;;;;;;21.38;2.58;;;9.90;92.40;;;;;;4944786;28;20035;-68
2022/03/19 10:08:35;;;;;;;6.72;1.70;;;9.90;91.70;;;;;;4947560;29;20036;-68
2022/03/19 10:08:43;;;;;;;10.07;2.70;;;10.00;91.60;;;;;;4944557;28;20047;-67
2022/03/19 10:11:13;;;;;;;12.80;2.92;;;10.00;91.70;;;;;;4954262;28;20031;-68
2022/03/19 10:13:47;;;;;;;1.45;1.20;;;10.10;91.80;;;;;;4946562;28;20580;-69
2022/03/19 10:16:26;;;;;;;;;;;10.10;91.90;;;;;;4943832;28;20398;-69
2022/03/19 10:18:58;;;;;;;10.18;2.55;;;10.10;91.90;;;;;;4939554;28;19911;-68
2022/03/19 10:21:25;;;;;;;10.15;2.58;;;10.10;91.60;;;;;;4947038;28;20375;-68
2022/03/19 10:23:51;;;;;;;10.52;2.38;;;10.20;91.60;;;;;;4943436;28;20028;-68
2022/03/19 10:26:29;;;;;;;8.27;1.85;;;10.20;91.50;;;;;;4945761;28;20058;-68
2022/03/19 10:29:07;;;;;;;6.78;1.90;;;10.10;91.40;;;;;;4947153;28;20057;-68
2022/03/19 10:31:46;;;;;;;3.88;1.38;;;10.10;91.60;;;;;;4945598;28;20536;-67
2022/03/19 10:34:13;;;;;;;7.10;1.60;;;10.10;92.00;;;;;;4948589;28;20039;-66
2022/03/19 10:36:41;;;;;;;11.10;2.17;;;10.20;92.00;;;;;;4939698;28;20114;-69
2022/03/19 10:39:25;;;;;;;7.95;2.42;;;10.20;92.00;;;;;;4947339;28;20055;-67
2022/03/19 10:41:52;;;;;;;10.00;2.55;;;10.20;91.90;;;;;;4942477;28;20035;-66
2022/03/19 10:44:20;;;;;;;14.35;2.95;;;10.20;91.80;;;;;;4947038;28;20031;-67
2022/03/19 10:46:50;;;;;;;5.65;2.10;;;10.20;91.60;;;;;;4945557;28;20475;-67
2022/03/19 10:49:17;;;;;;;9.25;2.47;;;10.20;91.70;;;;;;4953404;28;20134;-66
2022/03/19 10:51:48;;;;;;;7.53;2.10;;;10.30;91.50;;;;;;4949071;28;20027;-66
2022/03/19 10:54:15;;;;;;;1.90;0.73;;;10.30;91.40;;;;;;4949059;28;20030;-65
2022/03/19 10:56:45;;;;;;;9.02;1.85;;;10.30;91.70;;;;;;4948107;28;20081;-66
2022/03/19 10:59:11;;;;;;;2.92;1.60;;;10.40;91.10;;;;;;4936786;28;20063;-65
2022/03/19 11:01:38;;;;;;;4.85;1.33;;;10.40;91.20;;;;;;4937292;28;20035;-65
2022/03/19 11:04:05;;;;;;;3.78;0.90;;;10.40;91.00;;;;;;4947174;28;20031;-65
2022/03/19 11:06:40;;;;;;;3.03;1.20;;;10.40;91.00;;;;;;4929588;28;20394;-65
2022/03/19 11:09:13;;;;;;;4.03;1.42;;;10.50;91.10;;;;;;4944389;28;20579;-65
2022/03/19 11:11:42;;;;;;;6.25;1.90;;;10.50;90.80;;;;;;4978913;28;20081;-65
2022/03/19 11:14:10;;;;;;;4.20;1.42;;;10.50;91.20;;;;;;4949314;28;20041;-64
2022/03/19 11:16:37;;;;;;;5.47;1.50;;;10.50;91.10;;;;;;4951261;28;20043;-65
2022/03/19 11:19:04;;;;;;;6.28;1.65;;;10.50;91.40;;;;;;4949287;28;20035;-65
2022/03/19 11:21:31;;;;;;;4.45;1.63;;;10.50;91.40;;;;;;4948652;28;20498;-65
2022/03/19 11:24:10;;;;;;;5.95;1.65;;;10.50;91.40;;;;;;4943316;28;20029;-67
2022/03/19 11:26:37;;;;;;;10.15;1.65;;;10.60;91.50;;;;;;4945768;28;20035;-65
2022/03/19 11:29:05;;;;;;;3.83;1.08;;;10.60;91.30;;;;;;4951273;28;20463;-66
2022/03/19 11:31:31;;;;;;;4.43;1.33;;;10.60;91.20;;;;;;4950249;28;20063;-65
2022/03/19 11:34:17;;;;;;;2.65;1.20;;;10.60;91.20;;;;;;4951452;28;20375;-67
2022/03/19 11:36:57;;;;;;;7.47;2.30;;;10.70;91.50;;;;;;4945908;28;20066;-67
2022/03/19 11:39:23;;;;;;;2.88;0.95;;;10.70;91.30;;;;;;4946826;28;20364;-68
2022/03/19 11:41:49;;;;;;;3.83;1.73;;;10.70;91.90;;;;;;4955380;28;20039;-69
2022/03/19 11:44:25;;;;;;;13.38;1.33;;;10.80;91.40;;;;;;4946882;28;20549;-69
2022/03/19 11:47:06;;;;;;;8.02;1.50;;;10.90;91.40;;;;;;4947184;28;20046;-68
2022/03/19 11:49:49;;;;;;;2.08;1.30;;;10.90;91.60;;;;;;4939830;28;20047;-69
2022/03/19 11:52:17;;;;;;;3.50;1.13;;;10.90;91.50;;;;;;4947853;28;20042;-69
2022/03/19 11:55:03;;;;;;;7.47;1.60;;;10.90;91.60;;;;;;4950947;28;20567;-70
2022/03/19 11:57:46;;;;;;;5.82;1.40;;;11.00;91.50;;;;;;4938491;28;20050;-70
2022/03/19 12:00:21;;;;;;;3.97;1.23;;;11.00;91.30;;;;;;4950190;28;20443;-70
2022/03/19 12:03:06;;;;;;;2.28;1.00;;;11.00;91.40;;;;;;4940700;28;20047;-72
2022/03/19 12:05:33;;;;;;;5.95;1.48;;;11.10;91.10;;;;;;4945152;28;20085;-70
2022/03/19 12:08:16;;;;;;;4.68;1.30;;;11.10;91.20;;;;;;4952780;28;20037;-70
2022/03/19 12:10:57;;;;;;;;;;;11.10;91.00;;;;;;4954654;28;20093;-67
2022/03/19 12:13:26;;;;;;;3.75;1.58;;;11.20;91.70;;;;;;4950005;28;19911;-69
2022/03/19 12:15:56;;;;;;;3.40;1.17;;;11.10;91.40;;;;;;4944086;28;20490;-70
2022/03/19 12:18:53;;;;;;;4.80;1.30;;;11.10;91.60;;;;;;4970362;28;20035;-70
2022/03/19 12:21:21;;;;;;;7.18;2.22;;;11.20;91.50;;;;;;4972865;28;20043;-70
2022/03/19 12:24:16;;;;;;;0.55;0.55;;;11.20;91.20;;;;;;4947066;28;20032;-68
2022/03/19 12:26:51;;;;;;;2.60;1.20;;;11.20;91.50;;;;;;4944584;28;20047;-68
2022/03/19 12:29:19;;;;;;;1.35;0.65;;;11.30;91.40;;;;;;4947210;28;20036;-68
2022/03/19 12:31:48;;;;;;;2.92;1.05;;;11.30;91.60;;;;;;4949209;28;20130;-68
2022/03/19 12:34:22;;;;;;;3.67;1.30;;;11.40;91.70;;;;;;4949347;28;20031;-68
2022/03/19 12:36:48;;;;;;;;;;;11.40;91.20;;;;;;4947703;28;20055;-68
2022/03/19 12:39:14;;;;;;;2.05;1.02;;;11.50;91.80;;;;;;4945085;28;20379;-68
2022/03/19 12:41:42;;;;;;;6.15;1.42;;;11.50;91.50;;;;;;4947033;28;20126;-69
2022/03/19 12:44:17;;;;;;;4.95;1.60;;;11.50;91.00;;;;;;4958648;28;20032;-68
2022/03/19 12:46:42;;;;;;;9.80;1.67;;;11.60;91.00;;;;;;4954584;28;20039;-68
2022/03/19 12:49:17;;;;;;;6.75;1.73;;;11.60;91.30;;;;;;4957572;28;20058;-68
2022/03/19 12:51:49;;;;;;;2.35;0.98;;;11.60;90.80;;;;;;4945463;28;20031;-68
2022/03/19 12:54:16;;;;;;;9.20;1.73;;;11.70;91.20;;;;;;4948025;28;20031;-68
2022/03/19 12:56:41;;;;;;;9.00;1.55;;;11.70;91.30;;;;;;4953342;28;20061;-68
2022/03/19 12:59:14;;;;;;;6.85;1.75;;;11.70;91.20;;;;;;4948953;28;20062;-68
2022/03/19 13:01:41;;;;;;;4.40;1.60;;;11.80;90.80;;;;;;4947920;28;20047;-68
2022/03/19 13:04:07;;;;;;;7.90;2.65;;;11.80;90.80;;;;;;4946625;28;20039;-70
2022/03/19 13:06:36;;;;;;;3.17;1.33;;;11.90;90.90;;;;;;4941431;28;20032;-71
2022/03/19 13:09:04;;;;;;;4.10;1.20;;;11.90;90.80;;;;;;4940390;28;20070;-71